Terminal Aerodrome Forecast
Issued by NWS

Home | Current Version | Previous Version | Text Only | Print | Product List | Glossary On
Versions: 1 2 3 4 5 6 7 8 9 10 11 12 13 14 15 16 17 18 19 20 21 22 23 24 25 26 27 28 29 30 31 32 33 34 35 36
000
FTUS45 KGJT 260731 AAA
TAFEGE
TAF AMD
KEGE 260731Z 2608/2706 14004KT P6SM BKN060
     FM261000 VRB03KT P6SM VCSH BKN050
     FM261200 VRB03KT P6SM VCSH BKN025
     FM261600 27004KT P6SM BKN050
     FM261900 27006KT P6SM BKN090
     FM262300 25010KT P6SM BKN120
      AMD LTD TO CLD VIS AND WIND TIL 261300=

USA.gov is the U.S. government's official web portal to all federal, state and local government web resources and services.